Time,TemperatureF,DewpointF,PressureIn,WindDirection,WindDirectionDegrees,WindSpeedMPH,WindSpeedGustMPH,Humidity,HourlyPrecipIn,Conditions,Clouds,dailyrainin,SolarRadiationWatts/m^2,SoftwareType,DateUTC
2013-06-21 16:34:00,86.5,62.0,30.07,South,176,9.0,-999.0,44,-99.99,,,0.00,552,weatherlink.com 1.10,2013-06-21 20:34:00,
2013-06-21 16:35:00,86.5,62.0,30.07,South,179,5.0,8.0,44,0.00,,,0.00,552,Wunderground v.1.15,2013-06-21 20:35:00,
2013-06-21 16:41:00,86.5,63.0,30.07,South,174,8.0,-999.0,46,-99.99,,,0.00,608,weatherlink.com 1.10,2013-06-21 20:41:00,
2013-06-21 16:45:00,86.6,62.1,30.07,SSW,197,7.0,8.0,44,0.00,,,0.00,501,Wunderground v.1.15,2013-06-21 20:45:00,
2013-06-21 16:52:00,86.4,63.0,30.07,South,183,6.0,-999.0,45,-99.99,,,0.00,475,weatherlink.com 1.10,2013-06-21 20:52:00,
2013-06-21 16:55:00,86.5,62.0,30.07,SW,214,8.0,8.0,44,0.00,,,0.00,455,Wunderground v.1.15,2013-06-21 20:55:00,
2013-06-21 17:00:00,86.3,62.5,30.07,SSW,198,7.0,7.0,45,0.00,,,0.00,464,Wunderground v.1.15,2013-06-21 21:00:00,
2013-06-21 17:06:00,86.4,61.0,30.07,South,170,6.0,-999.0,43,-99.99,,,0.00,480,weatherlink.com 1.10,2013-06-21 21:06:00,
2013-06-21 17:15:00,86.3,62.5,30.06,South,176,6.0,9.0,45,0.00,,,0.00,434,Wunderground v.1.15,2013-06-21 21:15:00,
2013-06-21 17:20:00,86.4,61.3,30.06,SSE,162,7.0,7.0,43,0.00,,,0.00,388,Wunderground v.1.15,2013-06-21 21:20:00,
2013-06-21 17:30:00,86.1,62.3,30.06,South,177,6.0,8.0,45,0.00,,,0.00,332,Wunderground v.1.15,2013-06-21 21:30:00,
2013-06-21 17:35:00,86.0,61.5,30.06,South,184,7.0,8.0,44,0.00,,,0.00,304,Wunderground v.1.15,2013-06-21 21:35:00,
2013-06-21 17:40:00,86.0,62.8,30.07,South,177,7.0,7.0,46,0.00,,,0.00,283,Wunderground v.1.15,2013-06-21 21:40:00,
2013-06-21 17:45:00,85.8,61.4,30.07,South,176,7.0,7.0,44,0.00,,,0.00,250,Wunderground v.1.15,2013-06-21 21:45:00,
2013-06-21 17:50:00,85.7,63.0,30.07,SSW,193,6.0,-999.0,46,-99.99,,,0.00,246,weatherlink.com 1.10,2013-06-21 21:50:00,
2013-06-21 18:00:00,85.6,63.1,30.06,South,174,7.0,7.0,47,0.00,,,0.00,248,Wunderground v.1.15,2013-06-21 22:00:00,
2013-06-21 18:06:00,85.5,62.0,30.06,South,177,5.0,-999.0,46,-99.99,,,0.00,237,weatherlink.com 1.10,2013-06-21 22:06:00,
2013-06-21 18:15:00,85.4,62.3,30.06,South,172,5.0,6.0,46,0.00,,,0.00,220,Wunderground v.1.15,2013-06-21 22:15:00,
2013-06-21 18:20:00,85.3,62.8,30.06,SSW,192,6.0,6.0,47,0.00,,,0.00,193,Wunderground v.1.15,2013-06-21 22:20:00,
2013-06-21 18:25:00,85.2,63.3,30.06,South,183,5.0,6.0,48,0.00,,,0.00,174,Wunderground v.1.15,2013-06-21 22:25:00,
2013-06-21 18:35:00,84.9,63.0,30.06,South,185,5.0,5.0,48,0.00,,,0.00,137,Wunderground v.1.15,2013-06-21 22:35:00,
2013-06-21 18:45:00,84.7,65.1,30.06,SSW,202,5.0,5.0,52,0.00,,,0.00,107,Wunderground v.1.15,2013-06-21 22:45:00,
2013-06-21 18:55:00,82.9,65.1,30.05,SSW,197,7.0,12.0,55,0.00,,,0.00,123,Wunderground v.1.15,2013-06-21 22:55:00,
2013-06-21 19:05:00,81.6,66.0,30.05,West,267,3.0,-999.0,59,-99.99,,,0.00,102,weatherlink.com 1.10,2013-06-21 23:05:00,
2013-06-21 19:10:00,80.8,66.6,30.05,WSW,237,6.0,6.0,62,0.00,,,0.00,91,Wunderground v.1.15,2013-06-21 23:10:00,
2013-06-21 19:20:00,78.7,66.8,30.04,SSW,208,7.0,7.0,67,0.00,,,0.00,69,Wunderground v.1.15,2013-06-21 23:20:00,
2013-06-21 19:25:00,78.2,66.8,30.03,SSW,205,8.0,8.0,68,0.00,,,0.00,60,Wunderground v.1.15,2013-06-21 23:25:00,
2013-06-21 19:35:00,77.9,67.0,30.03,South,191,7.0,-999.0,70,-99.99,,,0.00,42,weatherlink.com 1.10,2013-06-21 23:35:00,
2013-06-21 19:50:00,78.0,67.4,30.01,South,185,10.0,17.0,70,0.00,,,0.00,26,Wunderground v.1.15,2013-06-21 23:50:00,
2013-06-21 20:00:00,77.5,67.4,29.98,South,190,19.0,19.0,71,0.00,,,0.00,21,Wunderground v.1.15,2013-06-22 00:00:00,
2013-06-21 20:06:00,77.2,67.0,29.96,South,187,21.0,-999.0,71,-99.99,,,0.00,18,weatherlink.com 1.10,2013-06-22 00:06:00,
2013-06-21 20:15:00,76.6,66.1,29.94,South,169,20.0,22.0,70,0.00,,,0.00,14,Wunderground v.1.15,2013-06-22 00:15:00,
2013-06-21 20:20:00,76.3,66.0,29.93,South,172,21.0,-999.0,70,-99.99,,,0.00,12,weatherlink.com 1.10,2013-06-22 00:20:00,
2013-06-21 20:30:00,76.0,65.9,29.93,South,185,17.0,17.0,71,0.00,,,0.00,11,Wunderground v.1.15,2013-06-22 00:30:00,
2013-06-21 20:36:00,75.7,66.0,29.93,SSE,168,21.0,-999.0,73,-99.99,,,0.00,11,weatherlink.com 1.10,2013-06-22 00:36:00,
2013-06-21 20:50:00,76.7,66.2,29.92,SSE,167,14.0,14.0,70,0.00,,,0.00,11,Wunderground v.1.15,2013-06-22 00:50:00,
2013-06-21 20:55:00,77.4,66.0,29.92,South,170,13.0,14.0,68,0.00,,,0.00,9,Wunderground v.1.15,2013-06-22 00:55:00,
2013-06-21 21:05:00,77.7,66.3,29.92,SSE,164,14.0,14.0,68,0.00,,,0.00,5,Wunderground v.1.15,2013-06-22 01:05:00,
2013-06-21 21:10:00,77.6,66.2,29.94,SW,227,13.0,13.0,68,0.00,,,0.00,0,Wunderground v.1.15,2013-06-22 01:10:00,
2013-06-21 21:20:00,77.1,66.6,29.95,NNW,332,7.0,7.0,70,0.00,,,0.00,0,Wunderground v.1.15,2013-06-22 01:20:00,
2013-06-21 21:25:00,76.9,66.4,29.96,NW,324,5.0,7.0,70,0.00,,,0.00,0,Wunderground v.1.15,2013-06-22 01:25:00,
2013-06-21 21:30:00,76.9,66.4,29.96,NNW,336,3.0,3.0,70,0.00,,,0.00,0,Wunderground v.1.15,2013-06-22 01:30:00,
2013-06-21 21:35:00,76.7,66.2,29.97,NW,319,3.0,4.0,70,0.00,,,0.00,0,Wunderground v.1.15,2013-06-22 01:35:00,
2013-06-21 21:45:00,76.5,66.4,29.97,NNW,330,4.0,4.0,71,0.00,,,0.00,0,Wunderground v.1.15,2013-06-22 01:45:00,
2013-06-21 21:50:00,76.3,66.6,29.98,NW,314,3.0,4.0,72,0.00,,,0.00,0,Wunderground v.1.15,2013-06-22 01:50:00,
2013-06-21 22:00:00,75.9,66.6,29.99,NNW,330,3.0,3.0,73,0.00,,,0.00,0,Wunderground v.1.15,2013-06-22 02:00:00,
2013-06-21 22:05:00,75.6,66.7,30.00,NW,306,2.0,3.0,74,0.00,,,0.00,0,Wunderground v.1.15,2013-06-22 02:05:00,
2013-06-21 22:15:00,75.3,66.4,30.02,NW,312,2.0,3.0,74,0.00,,,0.00,0,Wunderground v.1.15,2013-06-22 02:15:00,
2013-06-21 22:21:00,75.1,67.0,30.02,North,4,4.0,-999.0,75,-99.99,,,0.00,0,weatherlink.com 1.10,2013-06-22 02:21:00,
2013-06-21 22:30:00,74.7,66.2,30.02,NW,320,3.0,5.0,75,0.00,,,0.00,0,Wunderground v.1.15,2013-06-22 02:30:00,
2013-06-21 22:36:00,74.3,66.0,30.03,NNW,332,5.0,-999.0,76,-99.99,,,0.00,0,weatherlink.com 1.10,2013-06-22 02:36:00,
2013-06-21 22:45:00,74.1,66.0,30.04,NW,308,3.0,5.0,76,0.00,,,0.00,0,Wunderground v.1.15,2013-06-22 02:45:00,
2013-06-21 22:50:00,74.1,66.0,30.04,NNW,343,3.0,4.0,76,0.00,,,0.00,0,Wunderground v.1.15,2013-06-22 02:50:00,
2013-06-21 23:00:00,73.7,66.0,30.04,NNW,347,4.0,4.0,77,0.00,,,0.00,0,Wunderground v.1.15,2013-06-22 03:00:00,
2013-06-21 23:05:00,73.6,65.9,30.04,North,354,4.0,4.0,77,0.00,,,0.00,0,Wunderground v.1.15,2013-06-22 03:05:00,
2013-06-21 23:10:00,73.5,65.8,30.05,NNW,336,3.0,3.0,77,0.00,,,0.00,0,Wunderground v.1.15,2013-06-22 03:10:00,
2013-06-21 23:20:00,73.5,65.8,30.05,North,350,3.0,3.0,77,0.00,,,0.00,0,Wunderground v.1.15,2013-06-22 03:20:00,
2013-06-21 23:25:00,73.4,65.7,30.05,North,359,2.0,3.0,77,0.00,,,0.00,0,Wunderground v.1.15,2013-06-22 03:25:00,
2013-06-21 23:30:00,73.3,65.7,30.05,NW,316,1.0,1.0,77,0.00,,,0.00,0,Wunderground v.1.15,2013-06-22 03:30:00,
2013-06-21 23:36:00,73.2,66.0,30.05,NNW,345,0.0,-999.0,78,-99.99,,,0.00,0,weatherlink.com 1.10,2013-06-22 03:36:00,
2013-06-21 23:45:00,72.9,66.0,30.05,NW,324,1.0,2.0,79,0.00,,,0.00,0,Wunderground v.1.15,2013-06-22 03:45:00,
2013-06-21 23:51:00,72.7,66.0,30.05,NW,317,2.0,-999.0,79,-99.99,,,0.00,0,weatherlink.com 1.10,2013-06-22 03:51:00,